Time;durP1;ratioP1;P1;durP2;ratioP2;P2;SDS_P1;SDS_P2;PMS_P1;PMS_P2;Temp;Humidity;BMP_temperature;BMP_pressure;BME280_temperature;BME280_humidity;BME280_pressure;Samples;Min_cycle;Max_cycle;Signal;HPM_P1;HPM_P2
2024/01/27 00:00:57;;;;;;;12.63;4.50;;;13.60;99.90;;;;;;4593914;19;20430;-76
2024/01/27 00:02:51;;;;;;;18.77;8.80;;;13.60;99.90;;;;;;4593116;19;20023;-76
2024/01/27 00:04:26;;;;;;;28.83;13.33;;;13.60;99.90;;;;;;4592681;19;20058;-76
2024/01/27 00:06:02;;;;;;;10.33;3.20;;;13.60;99.90;;;;;;4592592;19;20014;-76
2024/01/27 00:07:36;;;;;;;20.13;7.17;;;13.60;99.90;;;;;;4593670;19;20006;-76
2024/01/27 00:09:09;;;;;;;36.27;19.20;;;13.60;99.90;;;;;;4593626;19;20003;-76
2024/01/27 00:10:45;;;;;;;24.30;11.30;;;13.60;99.90;;;;;;4593872;19;20019;-76
2024/01/27 00:12:20;;;;;;;26.37;11.97;;;13.70;99.90;;;;;;4593612;19;20020;-76
2024/01/27 00:13:54;;;;;;;14.63;5.40;;;13.70;99.90;;;;;;4593820;19;20006;-77
2024/01/27 00:15:29;;;;;;;11.33;3.97;;;13.70;99.90;;;;;;4593024;19;20039;-76
2024/01/27 00:17:03;;;;;;;21.90;9.80;;;13.70;99.90;;;;;;4592231;19;20009;-76
2024/01/27 00:18:38;;;;;;;24.57;11.93;;;13.70;99.90;;;;;;4593710;19;20311;-77
2024/01/27 00:20:14;;;;;;;15.97;6.03;;;13.70;99.90;;;;;;4593498;19;20006;-76
2024/01/27 00:21:49;;;;;;;10.80;3.10;;;13.70;99.90;;;;;;4593749;19;19998;-77
2024/01/27 00:23:23;;;;;;;9.63;3.10;;;13.70;99.90;;;;;;4592533;19;19998;-76
2024/01/27 00:24:59;;;;;;;16.70;7.27;;;13.60;99.90;;;;;;4593609;19;20003;-76
2024/01/27 00:26:33;;;;;;;15.20;4.17;;;13.60;99.90;;;;;;4592090;19;20421;-76
2024/01/27 00:28:07;;;;;;;13.37;5.80;;;13.60;99.90;;;;;;4593575;19;20025;-76
2024/01/27 00:29:44;;;;;;;17.33;7.07;;;13.60;99.90;;;;;;4593578;19;20082;-76
2024/01/27 00:31:19;;;;;;;11.30;3.60;;;13.60;99.90;;;;;;4593245;19;20010;-76
2024/01/27 00:32:53;;;;;;;15.30;6.47;;;13.60;99.90;;;;;;4592110;19;20026;-76
2024/01/27 00:34:29;;;;;;;12.37;6.33;;;13.70;99.90;;;;;;4592746;19;20014;-76
2024/01/27 00:36:04;;;;;;;12.67;5.27;;;13.70;99.90;;;;;;4592453;19;20025;-77
2024/01/27 00:37:38;;;;;;;11.37;4.47;;;13.70;99.90;;;;;;4593058;19;20438;-76
2024/01/27 00:39:13;;;;;;;21.47;11.20;;;13.60;99.90;;;;;;4593310;19;20291;-77
2024/01/27 00:40:47;;;;;;;13.10;5.13;;;13.60;99.90;;;;;;4593088;19;20002;-76
2024/01/27 00:42:23;;;;;;;14.17;6.67;;;13.70;99.90;;;;;;4592981;19;20010;-77
2024/01/27 00:43:58;;;;;;;11.63;4.50;;;13.70;99.90;;;;;;4592925;19;20007;-78
2024/01/27 00:45:32;;;;;;;11.90;4.50;;;13.60;99.90;;;;;;4592401;19;20119;-78
2024/01/27 00:47:06;;;;;;;11.17;3.83;;;13.60;99.90;;;;;;4593189;19;20363;-78
2024/01/27 00:48:41;;;;;;;10.10;4.00;;;13.60;99.90;;;;;;4593121;19;20002;-78
2024/01/27 00:50:15;;;;;;;12.37;4.57;;;13.60;99.90;;;;;;4592915;19;20322;-78
2024/01/27 00:51:49;;;;;;;14.70;4.97;;;13.60;99.90;;;;;;4593086;19;20489;-79
2024/01/27 00:53:25;;;;;;;14.87;5.10;;;13.60;99.90;;;;;;4591717;19;20036;-78
2024/01/27 00:54:59;;;;;;;10.50;3.47;;;13.60;99.90;;;;;;4592305;19;20011;-78
2024/01/27 00:56:33;;;;;;;13.47;5.00;;;13.60;99.90;;;;;;4591867;19;20034;-78
2024/01/27 00:58:08;;;;;;;10.27;3.73;;;13.60;99.90;;;;;;4592662;19;20460;-78
2024/01/27 00:59:42;;;;;;;9.83;3.83;;;13.60;99.90;;;;;;4592927;19;20006;-76
2024/01/27 01:16:54;;;;;;;14.13;4.80;;;13.50;99.90;;;;;;4591655;19;20010;-76
2024/01/27 01:18:29;;;;;;;11.50;3.43;;;13.50;99.90;;;;;;4592327;19;20006;-76
2024/01/27 01:20:04;;;;;;;15.40;3.83;;;13.50;99.90;;;;;;4592200;19;20010;-76
2024/01/27 01:21:38;;;;;;;11.67;4.00;;;13.50;99.90;;;;;;4592328;19;19998;-78
2024/01/27 01:23:17;;;;;;;9.70;3.83;;;13.50;99.90;;;;;;4591787;19;20014;-77
2024/01/27 01:24:50;;;;;;;12.30;4.13;;;13.60;99.90;;;;;;4592274;19;20317;-77
2024/01/27 01:26:27;;;;;;;11.93;3.07;;;13.50;99.90;;;;;;4591630;19;20025;-76
2024/01/27 01:28:03;;;;;;;9.77;3.13;;;13.50;99.90;;;;;;4592113;19;20006;-76
2024/01/27 01:29:37;;;;;;;9.10;2.87;;;13.60;99.90;;;;;;4592158;19;20009;-75
2024/01/27 01:31:11;;;;;;;11.83;2.87;;;13.50;99.90;;;;;;4592365;19;19998;-75
2024/01/27 01:32:47;;;;;;;12.50;3.37;;;13.50;99.90;;;;;;4592205;19;20002;-75
2024/01/27 01:34:21;;;;;;;12.23;3.53;;;13.50;99.90;;;;;;4590794;19;19994;-75
2024/01/27 01:35:56;;;;;;;10.70;2.80;;;13.50;99.90;;;;;;4591381;19;20006;-75
2024/01/27 19:48:29;;;;;;;23.33;11.60;;;15.00;96.70;;;;;;4590314;19;20018;-76
2024/01/27 19:50:06;;;;;;;13.33;6.03;;;15.00;96.60;;;;;;4594036;19;20031;-75
2024/01/27 19:51:44;;;;;;;13.98;4.85;;;15.00;96.70;;;;;;4594011;19;20337;-76
2024/01/27 19:53:18;;;;;;;15.38;5.43;;;15.00;96.80;;;;;;4594032;19;20002;-75
2024/01/27 19:54:54;;;;;;;16.60;6.60;;;14.90;96.80;;;;;;4594103;19;20013;-75
2024/01/27 19:56:28;;;;;;;15.47;5.67;;;14.90;96.70;;;;;;4594272;19;20440;-78
2024/01/27 19:58:04;;;;;;;21.90;11.97;;;14.90;96.80;;;;;;4591501;19;20083;-77
2024/01/27 19:59:39;;;;;;;26.60;14.57;;;14.80;96.80;;;;;;4592569;19;20013;-77
2024/01/27 20:01:18;;;;;;;27.07;16.50;;;14.90;96.80;;;;;;4593554;19;20003;-77
2024/01/27 20:02:53;;;;;;;21.55;12.10;;;14.80;96.80;;;;;;4593841;19;20011;-77
2024/01/27 20:04:29;;;;;;;22.03;11.20;;;14.70;96.90;;;;;;4593922;19;20011;-77
2024/01/27 20:06:04;;;;;;;21.30;10.63;;;14.70;96.90;;;;;;4593963;19;20074;-77
2024/01/27 20:07:39;;;;;;;22.77;11.90;;;14.70;97.00;;;;;;4593099;19;20058;-77
2024/01/27 20:09:14;;;;;;;23.73;11.50;;;14.60;97.10;;;;;;4593716;19;20006;-77
2024/01/27 20:10:49;;;;;;;22.60;11.10;;;14.50;97.10;;;;;;4593922;19;20074;-77
2024/01/27 20:12:23;;;;;;;24.88;11.90;;;14.50;97.10;;;;;;4593825;19;20015;-77
2024/01/27 20:14:00;;;;;;;17.40;8.70;;;14.50;97.20;;;;;;4593711;19;20006;-77
2024/01/27 20:15:34;;;;;;;33.97;16.77;;;14.40;97.20;;;;;;4593564;19;20003;-77
2024/01/27 20:17:08;;;;;;;31.63;16.27;;;14.30;97.20;;;;;;4591914;19;20357;-77
2024/01/27 20:18:45;;;;;;;29.53;16.57;;;14.30;97.30;;;;;;4593321;19;20024;-77
2024/01/27 20:20:20;;;;;;;35.17;20.20;;;14.20;97.30;;;;;;4593510;19;19998;-77
2024/01/27 20:21:54;;;;;;;36.07;23.43;;;14.20;97.40;;;;;;4593726;19;20002;-78
2024/01/27 20:23:29;;;;;;;25.07;15.50;;;14.20;97.50;;;;;;4592943;19;20014;-78
2024/01/27 20:25:04;;;;;;;40.13;26.33;;;14.10;97.50;;;;;;4593328;19;20019;-78
2024/01/27 20:26:39;;;;;;;36.60;24.40;;;14.10;97.80;;;;;;4593335;19;20066;-77
2024/01/27 20:28:14;;;;;;;29.90;12.80;;;14.10;97.70;;;;;;4591182;19;20361;-77
2024/01/27 20:29:49;;;;;;;19.20;9.90;;;14.20;97.70;;;;;;4592861;19;20014;-77
2024/01/27 20:31:23;;;;;;;20.77;9.85;;;14.10;97.70;;;;;;4593186;19;20006;-77
2024/01/27 20:32:58;;;;;;;24.30;13.23;;;14.10;97.70;;;;;;4591550;19;20428;-77
2024/01/27 20:34:33;;;;;;;36.53;20.80;;;14.10;97.70;;;;;;4593455;19;20005;-77
2024/01/27 20:36:07;;;;;;;60.03;38.93;;;14.10;97.70;;;;;;4593433;19;19999;-77
2024/01/27 20:37:42;;;;;;;53.77;33.23;;;14.10;97.70;;;;;;4592756;19;20010;-77
2024/01/27 20:39:16;;;;;;;54.90;35.43;;;14.10;97.80;;;;;;4593294;19;20002;-77
2024/01/27 20:40:50;;;;;;;43.58;23.42;;;14.10;97.90;;;;;;4593056;19;20069;-77
2024/01/27 20:42:25;;;;;;;39.73;22.20;;;14.10;97.90;;;;;;4593031;19;20062;-77
2024/01/27 20:44:00;;;;;;;52.20;31.58;;;14.10;98.00;;;;;;4590635;19;20114;-78
2024/01/27 20:45:34;;;;;;;38.57;23.17;;;14.00;98.00;;;;;;4592624;19;20002;-77
2024/01/27 20:47:10;;;;;;;23.20;12.73;;;14.00;98.10;;;;;;4592694;19;20429;-78
2024/01/27 20:48:44;;;;;;;22.92;10.13;;;14.00;98.10;;;;;;4590557;19;20022;-77
2024/01/27 20:50:19;;;;;;;16.83;8.27;;;13.90;98.10;;;;;;4592507;19;20082;-78
2024/01/27 20:51:54;;;;;;;17.70;8.03;;;13.90;98.20;;;;;;4592789;19;20061;-77
2024/01/27 20:53:28;;;;;;;14.13;6.23;;;13.90;98.10;;;;;;4591421;19;20010;-77
2024/01/27 20:55:02;;;;;;;13.38;6.18;;;13.80;98.10;;;;;;4592340;19;20314;-78
2024/01/27 20:56:37;;;;;;;17.67;8.00;;;13.80;98.10;;;;;;4592957;19;20015;-77
2024/01/27 20:58:11;;;;;;;27.73;14.18;;;13.80;98.20;;;;;;4591738;19;20308;-77
2024/01/27 20:59:44;;;;;;;23.47;10.83;;;13.80;98.20;;;;;;4592568;19;20010;-77
2024/01/27 21:01:22;;;;;;;20.77;11.83;;;13.80;98.30;;;;;;4591391;19;19998;-78
2024/01/27 21:02:56;;;;;;;24.27;12.37;;;13.80;98.30;;;;;;4591955;19;20044;-77
2024/01/27 21:04:30;;;;;;;21.87;12.30;;;13.70;98.40;;;;;;4591107;19;20011;-77
2024/01/27 21:06:05;;;;;;;27.60;15.97;;;13.70;98.50;;;;;;4592586;19;20014;-77
2024/01/27 21:07:41;;;;;;;26.70;15.63;;;13.70;98.60;;;;;;4591868;19;20006;-77
2024/01/27 21:09:16;;;;;;;22.70;11.17;;;13.70;98.60;;;;;;4592503;19;19999;-78
2024/01/27 21:10:51;;;;;;;17.53;8.27;;;13.80;98.70;;;;;;4592866;19;20010;-77
2024/01/27 21:12:25;;;;;;;50.33;29.77;;;13.80;98.60;;;;;;4592416;19;20006;-77
2024/01/27 21:13:59;;;;;;;27.73;17.50;;;13.80;98.60;;;;;;4592489;19;20023;-77
2024/01/27 21:15:37;;;;;;;21.67;10.40;;;13.80;98.50;;;;;;4592569;19;20337;-78
2024/01/27 21:17:11;;;;;;;56.80;34.37;;;13.80;98.60;;;;;;4590742;19;20019;-77
2024/01/27 21:18:45;;;;;;;14.90;7.93;;;13.80;98.60;;;;;;4592183;19;20301;-77
2024/01/27 21:20:20;;;;;;;15.57;6.43;;;13.80;98.60;;;;;;4592208;19;20007;-77
2024/01/27 21:21:54;;;;;;;20.13;10.43;;;13.80;98.60;;;;;;4592262;19;20010;-77
2024/01/27 21:23:28;;;;;;;13.63;5.73;;;13.80;98.70;;;;;;4590689;19;20033;-77
2024/01/27 21:25:04;;;;;;;28.27;16.17;;;13.80;98.70;;;;;;4591875;19;20077;-78
2024/01/27 21:26:38;;;;;;;18.17;9.20;;;13.80;98.70;;;;;;4592179;19;20357;-77
2024/01/27 21:28:12;;;;;;;17.20;6.93;;;13.80;98.70;;;;;;4591109;19;20015;-77
2024/01/27 21:29:48;;;;;;;14.57;7.73;;;13.80;98.80;;;;;;4590877;19;20010;-77
2024/01/27 21:31:23;;;;;;;23.37;12.00;;;13.80;98.80;;;;;;4592015;19;20371;-77
2024/01/27 21:32:57;;;;;;;42.30;22.63;;;13.80;98.80;;;;;;4591992;19;20002;-77
2024/01/27 21:34:32;;;;;;;54.97;26.20;;;13.80;98.80;;;;;;4592326;19;20006;-77
2024/01/27 21:36:09;;;;;;;51.50;28.37;;;13.80;98.90;;;;;;4592278;19;20001;-77
2024/01/27 21:37:43;;;;;;;45.60;24.80;;;13.80;98.80;;;;;;4591534;19;20007;-77
2024/01/27 21:39:18;;;;;;;53.47;24.40;;;13.80;98.80;;;;;;4591970;19;20428;-77
2024/01/27 21:40:52;;;;;;;64.33;27.90;;;13.80;99.00;;;;;;4592151;19;20360;-77
2024/01/27 21:42:27;;;;;;;58.87;30.37;;;13.80;99.00;;;;;;4591802;19;20027;-77
2024/01/27 21:44:03;;;;;;;39.77;20.17;;;13.80;99.00;;;;;;4591855;19;20007;-77
2024/01/27 21:45:39;;;;;;;52.30;30.50;;;13.80;98.90;;;;;;4600978;19;20435;-77
2024/01/27 21:47:13;;;;;;;67.00;35.63;;;13.80;99.00;;;;;;4600579;19;20417;-77
2024/01/27 21:48:49;;;;;;;60.27;30.93;;;13.80;99.00;;;;;;4598320;19;20021;-77
2024/01/27 21:50:22;;;;;;;57.03;25.67;;;13.80;99.10;;;;;;4600262;19;20313;-77
2024/01/27 21:51:56;;;;;;;28.27;13.60;;;13.80;99.10;;;;;;4600862;19;20302;-77
2024/01/27 21:53:33;;;;;;;37.33;17.70;;;13.80;99.10;;;;;;4601333;19;20297;-77
2024/01/27 21:55:08;;;;;;;27.40;12.40;;;13.80;99.20;;;;;;4601285;19;20023;-77
2024/01/27 21:56:41;;;;;;;16.83;7.10;;;13.70;99.20;;;;;;4600763;19;20002;-78
2024/01/27 21:58:18;;;;;;;40.43;17.63;;;13.80;99.20;;;;;;4599437;19;20066;-77
2024/01/27 21:59:52;;;;;;;35.33;16.13;;;13.80;99.20;;;;;;4599126;19;20006;-77
2024/01/27 22:01:26;;;;;;;33.43;19.53;;;13.80;99.20;;;;;;4600125;19;20009;-78
2024/01/27 22:03:02;;;;;;;32.57;17.67;;;13.80;99.30;;;;;;4600691;19;20013;-77
2024/01/27 22:04:38;;;;;;;46.43;24.77;;;13.80;99.30;;;;;;4600301;19;20010;-77
2024/01/27 22:06:13;;;;;;;35.23;17.07;;;13.80;99.30;;;;;;4600281;19;19998;-77
2024/01/27 22:07:53;;;;;;;39.87;19.73;;;13.80;99.30;;;;;;4599589;19;20117;-77
2024/01/27 22:09:27;;;;;;;36.80;18.67;;;13.80;99.40;;;;;;4599345;19;20003;-77
2024/01/27 22:11:02;;;;;;;49.57;26.37;;;13.80;99.60;;;;;;4598813;19;20011;-77
2024/01/27 22:12:38;;;;;;;81.37;43.23;;;13.80;99.50;;;;;;4599965;19;20007;-77
2024/01/27 22:14:13;;;;;;;75.50;49.30;;;13.80;99.40;;;;;;4600371;19;20009;-77
2024/01/27 22:15:48;;;;;;;65.77;42.03;;;13.80;99.50;;;;;;4599087;19;20507;-77
2024/01/27 22:17:23;;;;;;;56.60;34.87;;;13.80;99.50;;;;;;4599388;19;20010;-77
2024/01/27 22:18:57;;;;;;;70.07;38.33;;;13.70;99.50;;;;;;4600326;19;20283;-77
2024/01/27 22:20:31;;;;;;;62.27;34.43;;;13.80;99.60;;;;;;4600040;19;20065;-77
2024/01/27 22:22:07;;;;;;;102.17;55.63;;;13.80;99.60;;;;;;4600106;19;20013;-77
2024/01/27 22:23:41;;;;;;;121.33;63.53;;;13.80;99.60;;;;;;4599510;19;20065;-77
2024/01/27 22:25:15;;;;;;;61.33;32.73;;;13.80;99.60;;;;;;4600031;19;19998;-78
2024/01/27 22:26:50;;;;;;;54.87;28.90;;;13.80;99.60;;;;;;4599939;19;20020;-77
2024/01/27 22:28:26;;;;;;;29.00;14.60;;;13.70;99.60;;;;;;4598554;19;20435;-78
2024/01/27 22:30:00;;;;;;;31.30;17.20;;;13.80;99.70;;;;;;4599891;19;20015;-77
2024/01/27 22:31:35;;;;;;;26.53;16.00;;;13.80;99.70;;;;;;4600009;19;20115;-77
2024/01/27 22:33:16;;;;;;;25.70;13.83;;;13.80;99.70;;;;;;4599936;19;20020;-77
2024/01/27 22:34:51;;;;;;;60.95;34.42;;;13.80;99.70;;;;;;4599848;19;20028;-77
2024/01/27 22:36:27;;;;;;;48.67;28.43;;;13.80;99.70;;;;;;4600062;19;20073;-77
2024/01/27 22:38:02;;;;;;;42.47;24.20;;;13.80;99.70;;;;;;4598822;19;20038;-77
2024/01/27 22:39:40;;;;;;;48.80;24.90;;;13.80;99.80;;;;;;4600115;19;20023;-77
2024/01/27 22:41:13;;;;;;;42.37;22.37;;;13.80;99.80;;;;;;4600287;19;20017;-77
2024/01/27 22:42:48;;;;;;;49.30;22.43;;;13.80;99.80;;;;;;4600168;19;20006;-77
2024/01/27 22:44:23;;;;;;;39.10;17.27;;;13.80;99.80;;;;;;4598756;19;20057;-77
2024/01/27 22:45:57;;;;;;;38.27;17.07;;;13.80;99.90;;;;;;4599934;19;20010;-77
2024/01/27 22:47:32;;;;;;;34.30;16.67;;;13.80;99.80;;;;;;4599182;19;20006;-77
2024/01/27 22:49:10;;;;;;;32.27;15.13;;;13.80;99.90;;;;;;4598447;19;20104;-77
2024/01/27 22:50:45;;;;;;;32.90;14.03;;;13.80;99.90;;;;;;4599912;19;20027;-77
2024/01/27 22:52:19;;;;;;;27.83;15.23;;;13.80;99.90;;;;;;4600120;19;20307;-77
2024/01/27 22:53:55;;;;;;;29.43;15.57;;;13.80;99.90;;;;;;4598491;19;20007;-77
2024/01/27 22:55:29;;;;;;;23.67;11.93;;;13.80;99.90;;;;;;4599220;19;20012;-77
2024/01/27 22:57:03;;;;;;;23.57;11.40;;;13.70;99.90;;;;;;4593843;19;20018;-77
2024/01/27 22:58:39;;;;;;;32.17;17.33;;;13.80;99.90;;;;;;4594132;19;20007;-77
2024/01/27 23:00:32;;;;;;;30.43;13.77;;;13.80;99.90;;;;;;4594979;19;20032;-77
2024/01/27 23:02:07;;;;;;;26.53;12.60;;;13.70;99.90;;;;;;4595356;19;20430;-77
2024/01/27 23:03:43;;;;;;;27.17;13.10;;;13.80;99.90;;;;;;4594529;19;20006;-78
2024/01/27 23:05:18;;;;;;;28.37;11.80;;;13.80;99.90;;;;;;4595249;19;20010;-77
2024/01/27 23:06:52;;;;;;;22.60;10.80;;;13.70;99.90;;;;;;4595504;19;20010;-77
2024/01/27 23:08:27;;;;;;;27.93;12.57;;;13.70;99.90;;;;;;4595249;19;20013;-77
2024/01/27 23:10:02;;;;;;;15.57;6.47;;;13.70;99.90;;;;;;4595417;19;19998;-77
2024/01/27 23:11:36;;;;;;;34.40;20.80;;;13.70;99.90;;;;;;4595384;19;19999;-77
2024/01/27 23:13:12;;;;;;;19.17;10.73;;;13.60;99.90;;;;;;4593784;19;20014;-77
2024/01/27 23:14:47;;;;;;;35.93;17.17;;;13.60;99.90;;;;;;4594729;19;20359;-77
2024/01/27 23:16:21;;;;;;;44.50;23.47;;;13.60;99.90;;;;;;4594969;19;20015;-78
2024/01/27 23:17:58;;;;;;;28.97;15.23;;;13.60;99.90;;;;;;4592641;19;20002;-77
2024/01/27 23:19:31;;;;;;;38.77;20.13;;;13.70;99.90;;;;;;4594885;19;20003;-77
2024/01/27 23:21:05;;;;;;;19.80;9.57;;;13.60;99.90;;;;;;4594908;19;19998;-77
2024/01/27 23:22:40;;;;;;;53.00;25.70;;;13.60;99.90;;;;;;4595114;19;20003;-77
2024/01/27 23:24:14;;;;;;;75.63;42.63;;;13.70;99.90;;;;;;4593682;19;20434;-77
2024/01/27 23:25:48;;;;;;;58.77;31.30;;;13.70;99.90;;;;;;4595044;19;20450;-77
2024/01/27 23:27:24;;;;;;;59.87;31.20;;;13.70;99.90;;;;;;4594287;19;20031;-77
2024/01/27 23:28:58;;;;;;;54.57;30.53;;;13.70;99.90;;;;;;4594799;19;20306;-77
2024/01/27 23:30:36;;;;;;;53.83;31.03;;;13.70;99.90;;;;;;4594731;19;20002;-77
2024/01/27 23:32:11;;;;;;;109.50;68.53;;;13.70;99.90;;;;;;4595007;19;20023;-77
2024/01/27 23:33:45;;;;;;;71.03;46.23;;;13.70;99.90;;;;;;4594918;19;20286;-77
2024/01/27 23:35:19;;;;;;;47.40;30.73;;;13.70;99.90;;;;;;4594893;19;20002;-77
2024/01/27 23:36:56;;;;;;;39.60;25.93;;;13.70;99.90;;;;;;4594760;19;20022;-77
2024/01/27 23:38:29;;;;;;;25.83;17.87;;;13.70;99.90;;;;;;4593222;19;20003;-77
2024/01/27 23:40:06;;;;;;;23.63;20.03;;;13.70;99.90;;;;;;4594234;19;19998;-77
2024/01/27 23:41:41;;;;;;;12.60;7.87;;;13.70;99.90;;;;;;4593187;19;20006;-77
2024/01/27 23:43:15;;;;;;;15.10;10.70;;;13.70;99.90;;;;;;4594038;19;20003;-78
2024/01/27 23:44:49;;;;;;;12.23;9.77;;;13.70;99.90;;;;;;4593128;19;20002;-77
2024/01/27 23:46:24;;;;;;;10.67;9.57;;;13.70;99.90;;;;;;4593077;19;20002;-77
2024/01/27 23:47:58;;;;;;;15.20;10.13;;;13.70;99.90;;;;;;4592608;19;20039;-77
2024/01/27 23:49:32;;;;;;;9.73;6.90;;;13.70;99.90;;;;;;4594496;19;20013;-77
2024/01/27 23:51:11;;;;;;;9.03;5.40;;;13.70;99.90;;;;;;4594422;19;20029;-77
2024/01/27 23:52:48;;;;;;;11.70;7.00;;;13.70;99.90;;;;;;4594383;19;20007;-78
2024/01/27 23:54:24;;;;;;;9.67;5.77;;;13.70;99.90;;;;;;4593010;19;20003;-77
2024/01/27 23:56:01;;;;;;;8.93;5.60;;;13.70;99.90;;;;;;4594245;19;20017;-77
2024/01/27 23:57:35;;;;;;;7.10;3.53;;;13.70;99.90;;;;;;4593823;19;20154;-77
2024/01/27 23:59:10;;;;;;;6.03;3.27;;;13.70;99.90;;;;;;4594081;19;20437;-77
